createdAt,value
2019-05-23T00:02:24.678Z,6.63
2019-05-23T00:06:30.511Z,5.97
2019-05-23T00:10:40.004Z,6.53
2019-05-23T00:14:50.781Z,6.87
2019-05-23T00:18:56.170Z,7.30
2019-05-23T00:23:01.454Z,7.70
2019-05-23T00:27:07.151Z,7.97
2019-05-23T00:31:20.225Z,9.23
2019-05-23T00:35:25.738Z,8.67
2019-05-23T00:39:31.557Z,8.87
2019-05-23T00:43:36.127Z,9.17
2019-05-23T00:47:40.402Z,9.63
2019-05-23T00:51:46.499Z,9.43
2019-05-23T00:55:51.323Z,11.30
2019-05-23T00:59:56.015Z,9.40
2019-05-23T01:04:05.047Z,11.03
2019-05-23T01:08:11.556Z,9.30
2019-05-23T01:12:16.680Z,10.57
2019-05-23T01:16:22.011Z,8.63
2019-05-23T01:20:31.696Z,8.63
2019-05-23T01:24:38.271Z,10.17
2019-05-23T01:28:42.657Z,9.70
2019-05-23T01:32:48.637Z,10.97
2019-05-23T01:36:54.041Z,9.03
2019-05-23T01:40:59.472Z,10.07
2019-05-23T01:45:05.465Z,8.87
2019-05-23T01:49:11.863Z,5.17
2019-05-23T01:53:16.482Z,7.33
2019-05-23T01:57:20.691Z,9.33
2019-05-23T02:01:25.213Z,9.83
2019-05-23T02:05:29.870Z,9.97
2019-05-23T02:09:37.187Z,10.40
2019-05-23T02:13:42.544Z,9.00
2019-05-23T02:17:47.439Z,10.20
2019-05-23T02:21:51.728Z,10.43
2019-05-23T02:25:59.514Z,9.73
2019-05-23T02:30:04.642Z,12.40
2019-05-23T02:34:09.328Z,12.23
2019-05-23T02:38:36.474Z,12.40
2019-05-23T02:42:47.450Z,12.10
2019-05-23T02:47:04.955Z,12.27
2019-05-23T02:51:14.632Z,12.53
2019-05-23T02:55:23.821Z,12.57
2019-05-23T02:59:49.063Z,13.17
2019-05-23T03:03:54.903Z,12.17
2019-05-23T03:08:00.586Z,13.63
2019-05-23T03:12:07.930Z,14.33
2019-05-23T03:16:17.302Z,14.43
2019-05-23T03:20:22.082Z,13.03
2019-05-23T03:24:26.569Z,13.83
2019-05-23T03:28:37.029Z,13.10
2019-05-23T03:32:46.962Z,12.83
2019-05-23T03:36:52.959Z,12.53
2019-05-23T03:40:57.199Z,13.50
2019-05-23T03:45:03.194Z,12.50
2019-05-23T03:49:08.860Z,12.03
2019-05-23T03:53:13.435Z,12.77
2019-05-23T03:57:19.388Z,13.20
2019-05-23T04:01:43.975Z,12.83
2019-05-23T04:05:33.002Z,12.93
2019-05-23T04:09:37.948Z,12.53
2019-05-23T04:13:42.223Z,12.97
2019-05-23T04:17:46.993Z,13.43
2019-05-23T04:21:51.668Z,14.03
2019-05-23T04:25:55.899Z,13.67
2019-05-23T04:30:00.216Z,16.65
2019-05-23T04:34:04.624Z,14.57
2019-05-23T04:38:09.619Z,14.13
2019-05-23T04:42:13.910Z,15.43
2019-05-23T04:46:18.825Z,15.07
2019-05-23T04:50:23.046Z,14.17
2019-05-23T04:54:27.938Z,15.10
2019-05-23T04:58:33.138Z,14.20
2019-05-23T05:02:37.456Z,13.93
2019-05-23T05:06:41.850Z,14.27
2019-05-23T05:10:47.432Z,13.90
2019-05-23T05:14:51.738Z,15.17
2019-05-23T05:18:56.561Z,15.00
2019-05-23T05:23:00.892Z,16.67
2019-05-23T05:27:05.671Z,16.80
2019-05-23T05:31:09.975Z,16.97
2019-05-23T05:35:14.772Z,16.90
2019-05-23T05:39:19.468Z,16.67
2019-05-23T05:43:23.797Z,16.67
2019-05-23T05:47:28.512Z,16.13
2019-05-23T05:51:33.035Z,16.07
2019-05-23T05:55:37.276Z,17.00
2019-05-23T05:59:41.488Z,17.40
2019-05-23T06:03:47.083Z,18.03
2019-05-23T06:07:52.186Z,16.70
2019-05-23T06:11:56.574Z,16.03
2019-05-23T06:16:00.894Z,17.20
2019-05-23T06:20:05.979Z,14.97
2019-05-23T06:24:10.685Z,15.67
2019-05-23T06:28:15.907Z,13.67
2019-05-23T06:32:21.790Z,11.63
2019-05-23T06:36:27.284Z,11.63
2019-05-23T06:40:32.694Z,11.73
2019-05-23T06:44:37.552Z,10.30
2019-05-23T06:48:45.591Z,10.80
2019-05-23T06:52:47.893Z,9.90
2019-05-23T06:56:52.124Z,10.17
2019-05-23T07:00:56.370Z,10.33
2019-05-23T07:05:00.586Z,6.23
2019-05-23T07:09:09.044Z,6.40
2019-05-23T07:13:13.367Z,5.97
2019-05-23T07:17:19.656Z,5.23
2019-05-23T07:21:24.063Z,5.07
2019-05-23T07:25:28.857Z,5.33
2019-05-23T07:29:33.805Z,5.60
2019-05-23T07:33:38.437Z,5.30
2019-05-23T07:37:43.076Z,4.87
2019-05-23T07:41:47.359Z,4.70
2019-05-23T07:45:55.513Z,3.73
2019-05-23T07:49:59.718Z,3.80
2019-05-23T07:54:41.169Z,3.83
2019-05-23T07:58:45.922Z,3.30
2019-05-23T08:02:51.849Z,2.57
2019-05-23T08:06:56.043Z,3.67
2019-05-23T08:11:00.255Z,3.60
2019-05-23T08:15:05.126Z,2.80
2019-05-23T08:19:09.408Z,2.57
2019-05-23T08:23:14.442Z,2.40
2019-05-23T08:27:19.864Z,2.23
2019-05-23T08:31:24.167Z,2.17
2019-05-23T08:35:28.656Z,1.90
2019-05-23T08:39:34.527Z,1.90
2019-05-23T08:43:38.741Z,2.20
2019-05-23T08:47:42.973Z,2.17
2019-05-23T08:51:47.763Z,1.80
2019-05-23T08:55:52.465Z,1.70
2019-05-23T08:59:56.730Z,1.70
2019-05-23T09:04:01.940Z,1.20
2019-05-23T09:08:08.422Z,2.00
2019-05-23T09:12:12.735Z,1.60
2019-05-23T09:16:17.132Z,1.67
2019-05-23T09:20:21.805Z,1.70
2019-05-23T09:24:26.027Z,2.03
2019-05-23T09:28:30.416Z,1.60
2019-05-23T09:32:34.653Z,1.57
2019-05-23T09:36:38.885Z,1.40
2019-05-23T09:40:43.404Z,1.50
2019-05-23T09:44:47.630Z,1.10
2019-05-23T09:48:51.873Z,1.20
2019-05-23T09:52:56.093Z,1.27
2019-05-23T09:57:00.527Z,2.27
2019-05-23T10:01:05.527Z,2.20
2019-05-23T10:05:12.248Z,2.77
2019-05-23T10:09:16.465Z,2.20
2019-05-23T10:13:37.838Z,1.90
2019-05-23T10:17:27.638Z,2.00
2019-05-23T10:21:31.850Z,2.53
2019-05-23T10:25:36.046Z,3.87
2019-05-23T10:29:40.292Z,3.50
2019-05-23T10:33:44.521Z,2.93
2019-05-23T10:37:48.852Z,3.33
2019-05-23T10:41:53.076Z,3.77
2019-05-23T10:45:57.361Z,3.93
2019-05-23T10:50:07.216Z,4.80
2019-05-23T10:54:07.789Z,5.10
2019-05-23T10:58:12.089Z,5.37
2019-05-23T11:02:17.580Z,4.80
2019-05-23T11:06:22.079Z,5.57
2019-05-23T11:10:26.662Z,5.45
2019-05-23T11:14:30.985Z,5.40
2019-05-23T11:18:35.213Z,5.47
2019-05-23T11:22:39.522Z,5.10
2019-05-23T11:26:44.729Z,5.40
2019-05-23T11:30:53.915Z,4.70
2019-05-23T11:34:58.364Z,4.93
2019-05-23T11:39:04.651Z,4.08
2019-05-23T11:43:09.250Z,4.45
2019-05-23T11:47:13.728Z,4.80
2019-05-23T11:51:19.276Z,4.27
2019-05-23T11:55:23.563Z,4.50
2019-05-23T11:59:28.296Z,4.33
2019-05-23T12:03:32.713Z,4.83
2019-05-23T12:07:38.839Z,5.50
2019-05-23T12:11:43.671Z,4.90
2019-05-23T12:15:49.802Z,4.87
2019-05-23T12:19:54.127Z,4.55
2019-05-23T12:23:58.445Z,5.08
2019-05-23T12:28:02.894Z,5.70
2019-05-23T12:32:09.172Z,5.37
2019-05-23T12:36:13.984Z,5.28
2019-05-23T12:40:18.288Z,5.62
2019-05-23T12:44:22.510Z,5.53
2019-05-23T12:48:49.079Z,5.83
2019-05-23T12:52:53.385Z,6.05
2019-05-23T12:56:57.584Z,6.15
2019-05-23T13:01:02.624Z,6.90
2019-05-23T13:05:07.549Z,5.87
2019-05-23T13:09:12.052Z,6.08
2019-05-23T13:13:16.635Z,5.85
2019-05-23T13:17:20.916Z,5.75
2019-05-23T13:21:25.244Z,6.35
2019-05-23T13:25:29.661Z,7.05
2019-05-23T13:29:33.877Z,7.17
2019-05-23T13:33:38.127Z,7.55
2019-05-23T13:37:52.991Z,7.45
2019-05-23T13:41:48.720Z,6.90
2019-05-23T13:45:53.064Z,8.28
2019-05-23T13:49:57.300Z,7.20
2019-05-23T13:54:01.544Z,7.65
2019-05-23T13:58:05.835Z,6.35
2019-05-23T14:02:10.254Z,7.15
2019-05-23T14:06:14.844Z,8.08
2019-05-23T14:10:19.577Z,7.45
2019-05-23T14:14:24.067Z,6.95
2019-05-23T14:18:30.223Z,6.12
2019-05-23T14:22:38.027Z,6.45
2019-05-23T14:26:49.097Z,6.50
2019-05-23T14:31:00.985Z,6.40
2019-05-23T14:35:06.043Z,6.87
2019-05-23T14:39:17.447Z,7.08
2019-05-23T14:43:25.698Z,6.47
2019-05-23T14:47:47.386Z,6.65
2019-05-23T14:52:04.636Z,5.83
2019-05-23T14:56:09.402Z,7.33
2019-05-23T15:00:14.210Z,6.75
2019-05-23T15:04:19.379Z,6.72
2019-05-23T15:08:23.765Z,7.10
2019-05-23T15:12:28.211Z,6.00
2019-05-23T15:16:32.887Z,6.15
2019-05-23T15:20:37.163Z,5.80
2019-05-23T15:24:41.459Z,6.08
2019-05-23T15:28:45.653Z,6.20
2019-05-23T15:32:49.910Z,5.92
2019-05-23T15:36:54.371Z,4.90
2019-05-23T15:40:58.712Z,5.37
2019-05-23T15:45:03.142Z,5.40
2019-05-23T15:49:08.031Z,5.23
2019-05-23T15:53:19.360Z,5.83
2019-05-23T15:57:36.228Z,5.22
2019-05-23T16:01:49.869Z,5.47
2019-05-23T16:05:54.948Z,5.30
2019-05-23T16:09:59.251Z,5.05
2019-05-23T16:14:03.495Z,5.65
2019-05-23T16:18:08.381Z,5.28
2019-05-23T16:22:13.020Z,4.87
2019-05-23T16:26:17.495Z,4.90
2019-05-23T16:30:21.892Z,5.37
2019-05-23T16:34:26.688Z,5.55
2019-05-23T16:38:30.921Z,5.33
2019-05-23T16:42:35.158Z,5.25
2019-05-23T16:46:39.436Z,4.70
2019-05-23T16:50:43.652Z,4.90
2019-05-23T16:54:49.806Z,5.33
2019-05-23T16:59:12.105Z,4.80
2019-05-23T17:03:23.400Z,4.60
2019-05-23T17:07:46.679Z,5.40
2019-05-23T17:12:15.767Z,5.22
2019-05-23T17:16:41.799Z,5.93
2019-05-23T17:21:08.498Z,5.05
2019-05-23T17:25:33.967Z,5.05
2019-05-23T17:30:10.562Z,5.03
2019-05-23T17:34:15.107Z,5.30
2019-05-23T17:38:20.427Z,4.58
2019-05-23T17:42:26.184Z,5.15
2019-05-23T17:46:30.806Z,5.07
2019-05-23T17:50:35.330Z,5.20
2019-05-23T17:54:40.189Z,4.53
2019-05-23T17:58:44.464Z,4.93
2019-05-23T18:02:48.746Z,5.20
2019-05-23T18:06:52.617Z,4.83
2019-05-23T18:10:57.090Z,6.60
2019-05-23T18:15:02.126Z,5.50
2019-05-23T18:19:07.860Z,7.17
2019-05-23T18:23:13.763Z,5.30
2019-05-23T18:27:19.187Z,6.13
2019-05-23T18:31:27.266Z,5.90
2019-05-23T18:35:32.086Z,6.20
2019-05-23T18:39:36.413Z,6.40
2019-05-23T18:43:42.008Z,7.03
2019-05-23T18:47:46.336Z,6.00
2019-05-23T18:51:51.172Z,5.83
2019-05-23T18:55:55.692Z,5.97
2019-05-23T18:59:59.910Z,5.60
2019-05-23T19:04:04.428Z,5.90
2019-05-23T19:08:08.740Z,5.50
2019-05-23T19:12:13.053Z,5.13
2019-05-23T19:16:17.450Z,5.30
2019-05-23T19:20:21.712Z,5.03
2019-05-23T19:24:26.069Z,5.87
2019-05-23T19:28:30.949Z,5.30
2019-05-23T19:32:35.353Z,4.90
2019-05-23T19:36:40.014Z,4.83
2019-05-23T19:40:44.313Z,4.60
2019-05-23T19:44:48.564Z,5.37
2019-05-23T19:48:54.312Z,5.50
2019-05-23T19:52:58.546Z,5.27
2019-05-23T19:57:02.750Z,5.57
2019-05-23T20:01:07.997Z,5.37
2019-05-23T20:05:17.253Z,5.73
2019-05-23T20:09:23.471Z,6.07
2019-05-23T20:13:27.813Z,7.47
2019-05-23T20:17:32.156Z,7.30
2019-05-23T20:21:36.563Z,8.40
2019-05-23T20:25:41.164Z,7.53
2019-05-23T20:29:45.429Z,7.60
2019-05-23T20:33:49.730Z,7.63
2019-05-23T20:37:54.009Z,7.27
2019-05-23T20:42:10.794Z,6.80
2019-05-23T20:46:04.195Z,6.80
2019-05-23T20:50:08.536Z,6.93
2019-05-23T20:54:13.023Z,7.70
2019-05-23T20:58:17.573Z,7.03
2019-05-23T21:02:21.872Z,7.07
2019-05-23T21:06:26.135Z,7.77
2019-05-23T21:10:47.330Z,7.37
2019-05-23T21:14:51.665Z,8.17
2019-05-23T21:18:55.885Z,7.60
2019-05-23T21:23:00.096Z,7.87
2019-05-23T21:27:04.571Z,7.70
2019-05-23T21:31:14.267Z,8.63
2019-05-23T21:35:18.451Z,9.37
2019-05-23T21:39:22.682Z,8.70
2019-05-23T21:43:26.879Z,9.43
2019-05-23T21:47:31.207Z,9.97
2019-05-23T21:51:35.427Z,8.77
2019-05-23T21:55:41.129Z,8.77
2019-05-23T21:59:45.368Z,9.20
2019-05-23T22:03:59.063Z,10.00
2019-05-23T22:08:03.299Z,9.03
2019-05-23T22:12:10.289Z,9.00
2019-05-23T22:16:14.849Z,9.53
2019-05-23T22:20:19.841Z,8.90
2019-05-23T22:24:24.410Z,10.07
2019-05-23T22:28:28.625Z,11.23
2019-05-23T22:32:34.223Z,10.90
2019-05-23T22:36:38.540Z,10.73
2019-05-23T22:40:42.764Z,10.50
2019-05-23T22:44:46.979Z,11.27
2019-05-23T22:48:51.288Z,10.57
2019-05-23T22:52:55.528Z,11.60
2019-05-23T22:56:59.768Z,10.37
2019-05-23T23:01:04.056Z,11.07
2019-05-23T23:05:08.293Z,11.63
2019-05-23T23:09:12.498Z,11.40
2019-05-23T23:13:16.991Z,11.27
2019-05-23T23:17:21.324Z,12.23
2019-05-23T23:21:25.872Z,12.23
2019-05-23T23:25:30.107Z,12.67
2019-05-23T23:29:33.920Z,12.37
2019-05-23T23:33:38.211Z,13.13
2019-05-23T23:37:42.445Z,13.43
2019-05-23T23:41:46.648Z,13.00
2019-05-23T23:46:08.704Z,12.87
2019-05-23T23:50:30.756Z,12.07
2019-05-23T23:54:52.914Z,13.27
2019-05-23T23:58:56.302Z,12.90
